Time;durP1;ratioP1;P1;durP2;ratioP2;P2;SDS_P1;SDS_P2;PMS_P1;PMS_P2;Temp;Humidity;BMP_temperature;BMP_pressure;BME280_temperature;BME280_humidity;BME280_pressure;Samples;Min_cycle;Max_cycle;Signal;HPM_P1;HPM_P2
2021/05/25 00:01:28;;;;;;;0.68;0.40;;;;;;;8.41;73.64;96337.72;5086899;28;20060;-76
2021/05/25 00:03:54;;;;;;;0.40;0.40;;;;;;;8.39;73.70;96331.88;5088162;28;20044;-76
2021/05/25 00:06:20;;;;;;;0.32;0.30;;;;;;;8.37;73.71;96335.72;5082210;28;20046;-76
2021/05/25 00:08:46;;;;;;;0.40;0.40;;;;;;;8.34;73.62;96339.53;5076831;28;20053;-76
2021/05/25 00:11:32;;;;;;;0.30;0.30;;;;;;;8.30;73.64;96330.50;5081297;28;20052;-76
2021/05/25 00:13:59;;;;;;;0.32;0.32;;;;;;;8.26;73.53;96326.72;5085984;28;20055;-76
2021/05/25 00:16:26;;;;;;;0.40;0.40;;;;;;;8.20;73.57;96328.31;5082366;28;20048;-76
2021/05/25 00:18:52;;;;;;;0.50;0.45;;;;;;;8.16;73.58;96345.41;5081956;28;20069;-76
2021/05/25 00:21:18;;;;;;;0.40;0.40;;;;;;;8.14;73.58;96339.59;5084523;28;20032;-76
2021/05/25 00:23:44;;;;;;;0.47;0.47;;;;;;;8.10;73.62;96344.41;5085811;28;20563;-76
2021/05/25 00:26:11;;;;;;;0.30;0.30;;;;;;;8.06;73.72;96339.81;5076989;28;20044;-76
2021/05/25 00:28:37;;;;;;;1.70;0.32;;;;;;;7.98;73.78;96342.63;5087144;28;20052;-76
2021/05/25 00:31:03;;;;;;;0.45;0.45;;;;;;;7.93;73.74;96332.81;5086967;28;20043;-77
2021/05/25 00:33:29;;;;;;;0.60;0.55;;;;;;;7.85;73.72;96333.00;5083415;28;20047;-76
2021/05/25 00:35:57;;;;;;;1.45;0.50;;;;;;;7.79;73.87;96336.44;5084920;28;20049;-76
2021/05/25 00:38:23;;;;;;;0.63;0.50;;;;;;;7.73;74.03;96330.22;5092768;28;20051;-76
2021/05/25 00:40:49;;;;;;;0.50;0.50;;;;;;;7.67;73.96;96336.25;5079881;28;20053;-76
2021/05/25 00:43:15;;;;;;;0.40;0.40;;;;;;;7.63;74.01;96340.28;5084896;28;20048;-76
2021/05/25 00:45:42;;;;;;;0.47;0.40;;;;;;;7.54;74.07;96334.47;5093639;28;20036;-76
2021/05/25 00:48:08;;;;;;;1.27;0.50;;;;;;;7.50;74.18;96330.66;5087092;28;20032;-76
2021/05/25 00:50:34;;;;;;;0.40;0.40;;;;;;;7.46;74.33;96332.84;5087890;28;20040;-76
2021/05/25 00:53:02;;;;;;;0.77;0.50;;;;;;;7.46;74.43;96337.25;5083413;28;20437;-76
2021/05/25 00:55:32;;;;;;;0.75;0.40;;;;;;;7.47;74.64;96324.00;5084624;28;20044;-76
2021/05/25 00:58:00;;;;;;;0.63;0.40;;;;;;;7.49;74.49;96321.19;5091166;28;20032;-76
2021/05/25 01:00:32;;;;;;;0.65;0.65;;;;;;;7.45;74.63;96326.00;5087224;28;20043;-76
2021/05/25 01:02:58;;;;;;;0.65;0.60;;;;;;;7.43;74.32;96333.25;5084460;28;20031;-76
2021/05/25 01:05:25;;;;;;;0.32;0.32;;;;;;;7.45;74.48;96333.81;5079266;28;20107;-76
2021/05/25 01:07:51;;;;;;;1.13;0.70;;;;;;;7.44;74.30;96329.63;5085911;28;20033;-76
2021/05/25 01:10:30;;;;;;;0.95;0.50;;;;;;;7.42;74.41;96333.44;5091386;28;20044;-76
2021/05/25 01:13:01;;;;;;;1.52;0.70;;;;;;;7.41;74.58;96331.81;5085973;28;20040;-76
2021/05/25 01:15:28;;;;;;;0.52;0.40;;;;;;;7.41;74.43;96337.03;5076953;28;20051;-76
2021/05/25 01:17:55;;;;;;;0.70;0.57;;;;;;;7.39;74.40;96339.88;5090328;28;20075;-76
2021/05/25 01:20:24;;;;;;;1.90;0.77;;;;;;;7.31;74.50;96330.44;5080987;28;20035;-76
2021/05/25 01:22:50;;;;;;;0.50;0.50;;;;;;;7.26;74.31;96326.81;5084877;28;20044;-76
2021/05/25 01:25:17;;;;;;;0.50;0.50;;;;;;;7.22;74.41;96321.19;5092677;28;20047;-76
2021/05/25 01:27:53;;;;;;;0.75;0.43;;;;;;;7.18;74.76;96330.44;5086572;28;20047;-76
2021/05/25 01:30:23;;;;;;;1.27;0.40;;;;;;;7.16;74.65;96329.81;5081205;28;20048;-76
2021/05/25 01:32:49;;;;;;;0.57;0.57;;;;;;;7.10;74.56;96334.03;5086975;28;20039;-75
2021/05/25 01:35:16;;;;;;;0.60;0.60;;;;;;;7.06;74.74;96330.19;5088852;28;20048;-76
2021/05/25 01:37:42;;;;;;;0.63;0.55;;;;;;;7.03;74.76;96342.81;5086301;28;20052;-76
2021/05/25 01:40:10;;;;;;;1.20;0.60;;;;;;;6.96;74.75;96342.81;5084627;28;20373;-76
2021/05/25 01:42:38;;;;;;;0.88;0.57;;;;;;;6.94;74.77;96342.22;5079980;28;20051;-76
2021/05/25 01:45:06;;;;;;;1.15;0.45;;;;;;;6.87;74.74;96339.59;5091560;28;20504;-76
2021/05/25 01:47:33;;;;;;;1.15;0.60;;;;;;;6.78;74.61;96335.53;5085229;28;20063;-76
2021/05/25 01:50:12;;;;;;;1.58;0.68;;;;;;;6.78;74.81;96332.94;5085044;28;20377;-76
2021/05/25 01:53:04;;;;;;;0.32;0.32;;;;;;;6.69;75.46;96336.72;5084654;28;20398;-76
2021/05/25 01:55:33;;;;;;;1.95;0.70;;;;;;;6.65;74.98;96345.94;5076412;28;20384;-76
2021/05/25 01:58:09;;;;;;;0.73;0.57;;;;;;;6.63;75.12;96347.94;5087886;28;20036;-76
2021/05/25 02:00:38;;;;;;;1.80;0.60;;;;;;;6.64;75.23;96354.75;5088352;28;20491;-76
2021/05/25 02:03:04;;;;;;;0.77;0.70;;;;;;;6.60;75.20;96345.72;5084791;28;20032;-76
2021/05/25 02:05:32;;;;;;;0.60;0.60;;;;;;;6.56;74.99;96349.72;5087264;28;20047;-76
2021/05/25 02:07:59;;;;;;;1.40;0.50;;;;;;;6.53;75.37;96361.34;5087865;28;20048;-76
2021/05/25 02:10:40;;;;;;;1.35;0.50;;;;;;;6.54;75.44;96351.72;5084384;28;20035;-76
2021/05/25 02:13:09;;;;;;;0.60;0.60;;;;;;;6.54;75.31;96351.72;5084620;28;20039;-76
2021/05/25 02:15:36;;;;;;;1.20;0.70;;;;;;;6.53;75.12;96350.09;5084163;28;20039;-76
2021/05/25 02:18:11;;;;;;;0.85;0.60;;;;;;;6.56;75.48;96349.72;5083991;28;20036;-76
2021/05/25 02:20:39;;;;;;;0.90;0.50;;;;;;;6.55;75.25;96356.72;5090249;28;20396;-77
2021/05/25 02:23:06;;;;;;;0.85;0.65;;;;;;;6.54;75.18;96357.72;5083643;28;20040;-76
2021/05/25 02:25:33;;;;;;;0.73;0.50;;;;;;;6.55;75.19;96354.13;5080684;28;20114;-76
2021/05/25 02:28:02;;;;;;;0.55;0.47;;;;;;;6.56;75.11;96365.34;5086909;28;20025;-76
2021/05/25 02:30:29;;;;;;;0.45;0.40;;;;;;;6.52;74.73;96364.13;5087665;28;20033;-76
2021/05/25 02:32:56;;;;;;;0.40;0.40;;;;;;;6.50;74.98;96369.53;5084822;28;20048;-76
2021/05/25 02:35:23;;;;;;;0.50;0.43;;;;;;;6.48;74.99;96371.50;5081380;28;20055;-76
2021/05/25 02:37:49;;;;;;;1.60;0.57;;;;;;;6.52;75.24;96377.94;5082875;28;20059;-76
2021/05/25 02:40:16;;;;;;;0.60;0.40;;;;;;;6.52;75.01;96382.38;5078223;28;20049;-77
2021/05/25 02:42:43;;;;;;;0.40;0.40;;;;;;;6.53;74.85;96390.00;5086789;28;20033;-76
2021/05/25 02:45:11;;;;;;;1.13;0.40;;;;;;;6.57;74.89;96390.38;5088715;28;20039;-76
2021/05/25 02:47:39;;;;;;;0.70;0.40;;;;;;;6.58;74.81;96376.38;5082903;28;20465;-76
2021/05/25 02:50:07;;;;;;;1.05;0.70;;;;;;;6.60;74.74;96382.19;5082549;28;20506;-77
2021/05/25 02:52:40;;;;;;;0.50;0.40;;;;;;;6.61;74.82;96368.97;5088130;28;20032;-76
2021/05/25 02:55:09;;;;;;;0.73;0.60;;;;;;;6.60;74.75;96369.16;5085436;28;20040;-76
2021/05/25 02:57:36;;;;;;;0.80;0.50;;;;;;;6.59;74.60;96360.53;5084679;28;20028;-76
2021/05/25 03:00:08;;;;;;;0.47;0.45;;;;;;;6.60;74.95;96366.56;5077367;28;20049;-76
2021/05/25 03:02:34;;;;;;;0.75;0.52;;;;;;;6.60;74.79;96367.38;5086402;28;20043;-77
2021/05/25 03:05:02;;;;;;;0.98;0.50;;;;;;;6.61;74.82;96375.97;5085272;28;20392;-77
2021/05/25 03:07:28;;;;;;;0.52;0.40;;;;;;;6.59;74.74;96383.19;5093816;28;20051;-77
2021/05/25 03:09:54;;;;;;;1.30;0.40;;;;;;;6.60;74.77;96375.19;5084590;28;20028;-75
2021/05/25 03:12:21;;;;;;;0.63;0.60;;;;;;;6.58;74.73;96381.59;5081224;28;20432;-77
2021/05/25 03:14:47;;;;;;;0.57;0.50;;;;;;;6.57;74.79;96393.78;5082474;28;20040;-77
2021/05/25 03:17:13;;;;;;;0.52;0.43;;;;;;;6.61;75.07;96384.59;5085011;28;20388;-77
2021/05/25 03:19:39;;;;;;;0.65;0.50;;;;;;;6.62;74.79;96385.41;5083604;28;20028;-76
2021/05/25 03:22:06;;;;;;;0.47;0.47;;;;;;;6.58;74.82;96386.81;5079321;28;20473;-75
2021/05/25 03:24:32;;;;;;;1.15;0.60;;;;;;;6.50;74.60;96395.56;5086186;28;20389;-76
2021/05/25 03:26:59;;;;;;;0.82;0.50;;;;;;;6.46;74.99;96394.34;5088685;28;20040;-76
2021/05/25 03:29:25;;;;;;;0.57;0.52;;;;;;;6.44;74.85;96399.75;5081479;28;20039;-77
2021/05/25 03:31:51;;;;;;;0.88;0.50;;;;;;;6.39;74.80;96398.72;5084696;28;20032;-77
2021/05/25 03:34:17;;;;;;;0.50;0.50;;;;;;;6.37;74.92;96411.16;5082989;28;20051;-78
2021/05/25 03:36:43;;;;;;;0.73;0.50;;;;;;;6.33;75.05;96404.69;5078656;28;20044;-77
2021/05/25 03:39:10;;;;;;;1.13;0.90;;;;;;;6.32;75.07;96414.31;5084720;28;20051;-77
2021/05/25 03:41:36;;;;;;;1.02;0.50;;;;;;;6.34;75.48;96414.13;5081291;28;20457;-78
2021/05/25 03:44:02;;;;;;;0.88;0.55;;;;;;;6.38;75.57;96407.53;5084175;28;20476;-77
2021/05/25 03:46:28;;;;;;;0.63;0.52;;;;;;;6.42;75.39;96408.75;5081744;28;20032;-77
2021/05/25 03:48:55;;;;;;;0.47;0.43;;;;;;;6.44;75.40;96404.16;5082585;28;20417;-76
2021/05/25 03:51:21;;;;;;;0.80;0.57;;;;;;;6.46;75.48;96391.75;5084544;28;20044;-77
2021/05/25 03:53:49;;;;;;;1.23;0.52;;;;;;;6.46;75.28;96395.16;5086484;28;20055;-77
2021/05/25 03:56:18;;;;;;;0.47;0.40;;;;;;;6.47;75.25;96403.78;5081108;28;20469;-77
2021/05/25 04:01:17;;;;;;;0.30;0.30;;;;;;;6.46;75.06;96397.75;5081781;28;20036;-75
2021/05/25 04:03:43;;;;;;;0.30;0.30;;;;;;;6.46;75.04;96407.38;5082996;28;20041;-76
2021/05/25 04:06:09;;;;;;;0.30;0.30;;;;;;;6.45;74.93;96417.00;5083504;28;20488;-76
2021/05/25 04:08:36;;;;;;;0.32;0.32;;;;;;;6.43;74.75;96415.59;5086352;28;20039;-76
2021/05/25 04:11:02;;;;;;;0.30;0.30;;;;;;;6.44;74.63;96422.38;5079461;28;20048;-76
2021/05/25 04:13:28;;;;;;;0.25;0.22;;;;;;;6.45;74.62;96424.00;5083138;28;20052;-76
2021/05/25 04:15:55;;;;;;;0.63;0.40;;;;;;;6.45;74.49;96424.00;5082515;28;20040;-75
2021/05/25 04:18:22;;;;;;;0.35;0.32;;;;;;;6.49;74.45;96420.81;5083924;28;20099;-76
2021/05/25 04:20:48;;;;;;;0.32;0.32;;;;;;;6.55;74.42;96421.88;5085588;28;20040;-76
2021/05/25 04:23:15;;;;;;;0.43;0.32;;;;;;;6.60;74.24;96427.28;5077892;28;20036;-76
2021/05/25 04:25:42;;;;;;;0.70;0.50;;;;;;;6.71;74.28;96418.13;5083224;28;20369;-76
2021/05/25 04:28:08;;;;;;;0.85;0.32;;;;;;;6.84;73.84;96433.00;5088851;28;20029;-76
2021/05/25 04:30:35;;;;;;;0.32;0.30;;;;;;;7.02;73.79;96429.88;5083199;28;20036;-76
2021/05/25 04:33:03;;;;;;;0.20;0.20;;;;;;;7.22;73.50;96440.34;5082556;28;20040;-76
2021/05/25 04:35:30;;;;;;;0.52;0.40;;;;;;;7.36;73.08;96436.00;5079811;28;20060;-75
2021/05/25 04:37:58;;;;;;;0.77;0.40;;;;;;;7.40;72.73;96443.22;5085153;28;20499;-76
2021/05/25 04:40:25;;;;;;;0.30;0.30;;;;;;;7.50;72.67;96442.84;5085970;28;20067;-76
2021/05/25 04:42:51;;;;;;;0.30;0.30;;;;;;;7.57;72.33;96446.25;5080034;28;20040;-76
2021/05/25 04:45:19;;;;;;;0.30;0.30;;;;;;;7.52;72.02;96452.06;5083499;28;20059;-75
2021/05/25 04:47:45;;;;;;;0.30;0.30;;;;;;;7.43;71.81;96457.66;5084027;28;20055;-76
2021/05/25 04:50:13;;;;;;;0.52;0.30;;;;;;;7.31;71.91;96460.06;5085378;28;20040;-76
2021/05/25 04:52:39;;;;;;;2.25;1.23;;;;;;;7.37;73.83;96450.63;5079258;28;20035;-76
2021/05/25 04:55:09;;;;;;;0.47;0.30;;;;;;;7.43;72.12;96468.94;5079691;28;20040;-76
2021/05/25 04:57:36;;;;;;;0.28;0.25;;;;;;;7.36;71.69;96459.47;5086230;28;20035;-76
2021/05/25 05:00:05;;;;;;;0.40;0.40;;;;;;;7.31;71.66;96466.06;5085776;28;20043;-76
2021/05/25 05:02:31;;;;;;;0.28;0.28;;;;;;;7.28;71.57;96465.66;5078044;28;20024;-76
2021/05/25 05:04:57;;;;;;;1.13;0.40;;;;;;;7.26;71.74;96475.47;5083304;28;20048;-76
2021/05/25 05:07:23;;;;;;;0.57;0.30;;;;;;;7.27;71.71;96470.06;5085508;28;20044;-76
2021/05/25 05:09:49;;;;;;;0.38;0.38;;;;;;;7.29;71.68;96481.13;5084377;28;20033;-76
2021/05/25 05:12:16;;;;;;;0.45;0.35;;;;;;;7.31;71.46;96484.34;5081806;28;20032;-76
2021/05/25 05:14:42;;;;;;;0.20;0.20;;;;;;;7.35;71.64;96489.16;5089196;28;20047;-76
2021/05/25 05:17:08;;;;;;;0.85;0.50;;;;;;;7.40;71.51;96498.00;5095582;28;20074;-77
2021/05/25 05:19:35;;;;;;;0.30;0.30;;;;;;;7.44;71.57;96495.81;5084761;28;20050;-77
2021/05/25 05:22:01;;;;;;;0.50;0.35;;;;;;;7.42;71.11;96490.00;5083829;28;20479;-77
2021/05/25 05:24:27;;;;;;;0.47;0.40;;;;;;;7.47;71.05;96493.59;5085641;28;20051;-77
2021/05/25 05:26:53;;;;;;;0.40;0.20;;;;;;;7.52;70.83;96487.81;5088292;28;20400;-77
2021/05/25 05:29:19;;;;;;;0.35;0.35;;;;;;;7.57;70.75;96484.59;5085514;28;20044;-77
2021/05/25 05:31:46;;;;;;;0.30;0.30;;;;;;;7.64;70.68;96486.25;5085187;28;20409;-77
2021/05/25 05:34:12;;;;;;;2.60;0.60;;;;;;;7.86;70.66;96486.06;5085225;28;20472;-77
2021/05/25 05:36:39;;;;;;;0.73;0.40;;;;;;;8.23;70.82;96489.91;5085972;28;20497;-77
2021/05/25 05:39:07;;;;;;;0.57;0.47;;;;;;;8.61;69.86;96478.81;5087030;28;20052;-77
2021/05/25 05:41:33;;;;;;;0.35;0.35;;;;;;;8.92;69.34;96475.53;5087042;28;20040;-77
2021/05/25 05:43:59;;;;;;;0.60;0.60;;;;;;;9.38;68.89;96483.38;5086190;28;20032;-76
2021/05/25 05:46:26;;;;;;;0.68;0.50;;;;;;;9.95;68.48;96479.00;5078718;28;20044;-77
2021/05/25 05:48:52;;;;;;;0.40;0.38;;;;;;;10.49;67.85;96490.69;5082838;28;20047;-77
2021/05/25 05:51:18;;;;;;;0.35;0.35;;;;;;;10.91;66.47;96476.97;5086508;28;20059;-77
2021/05/25 05:53:45;;;;;;;0.38;0.38;;;;;;;11.17;65.29;96487.16;5086352;28;20036;-77
2021/05/25 05:56:11;;;;;;;0.60;0.28;;;;;;;11.41;64.31;96489.88;5091922;28;20047;-77
2021/05/25 05:58:37;;;;;;;0.43;0.40;;;;;;;11.49;63.25;96489.59;5080539;28;20051;-77
2021/05/25 06:01:03;;;;;;;0.45;0.45;;;;;;;11.21;62.44;96494.59;5083560;28;20036;-76
2021/05/25 06:03:30;;;;;;;0.20;0.20;;;;;;;10.89;62.58;96500.00;5083556;28;20040;-77
2021/05/25 06:05:56;;;;;;;0.75;0.50;;;;;;;10.46;62.12;96500.81;5082621;28;20408;-76
2021/05/25 06:08:22;;;;;;;0.30;0.25;;;;;;;10.07;62.21;96490.41;5087885;28;20469;-77
2021/05/25 06:10:51;;;;;;;0.50;0.50;;;;;;;9.78;62.30;96499.66;5084549;28;20051;-77
2021/05/25 06:13:23;;;;;;;0.40;0.40;;;;;;;9.48;61.72;96497.63;5083983;28;20424;-76
2021/05/25 06:15:51;;;;;;;2.10;0.38;;;;;;;9.28;62.55;96508.19;5086026;28;20453;-75
2021/05/25 06:18:17;;;;;;;1.05;0.30;;;;;;;9.17;62.44;96515.88;5081979;28;20028;-77
2021/05/25 06:20:43;;;;;;;0.77;0.60;;;;;;;9.07;62.75;96503.22;5082924;28;20037;-77
2021/05/25 06:23:10;;;;;;;0.85;0.60;;;;;;;9.03;62.51;96502.03;5091319;28;20032;-77
2021/05/25 06:25:36;;;;;;;0.77;0.50;;;;;;;9.01;62.45;96502.25;5068713;28;20044;-77
2021/05/25 06:28:02;;;;;;;1.75;0.40;;;;;;;9.31;62.68;96501.75;5086877;28;20051;-77
2021/05/25 06:30:31;;;;;;;0.70;0.40;;;;;;;9.65;62.41;96503.16;5086045;28;20417;-77
2021/05/25 06:32:58;;;;;;;1.15;0.60;;;;;;;9.72;61.60;96493.47;5085184;28;20051;-77
2021/05/25 06:35:24;;;;;;;1.27;0.63;;;;;;;9.77;61.01;96500.69;5080368;28;20404;-77
2021/05/25 06:37:51;;;;;;;1.15;0.73;;;;;;;9.89;60.90;96498.19;5088770;28;20048;-77
2021/05/25 06:40:17;;;;;;;0.40;0.40;;;;;;;10.03;60.57;96491.84;5086980;28;20067;-77
2021/05/25 06:42:44;;;;;;;1.40;0.50;;;;;;;10.00;59.71;96489.66;5083541;28;20388;-77
2021/05/25 06:45:11;;;;;;;0.55;0.52;;;;;;;9.88;59.62;96504.44;5081032;28;20044;-77
2021/05/25 06:47:38;;;;;;;0.75;0.40;;;;;;;9.75;59.46;96497.47;5088764;28;20538;-77
2021/05/25 06:50:05;;;;;;;0.85;0.57;;;;;;;9.83;59.79;96526.03;5086352;28;20044;-77
2021/05/25 06:52:32;;;;;;;2.40;0.70;;;;;;;9.82;59.42;96521.00;5109776;28;20036;-77
2021/05/25 06:55:00;;;;;;;1.95;0.60;;;;;;;9.84;59.31;96517.16;5085409;28;20036;-77
2021/05/25 06:57:27;;;;;;;1.75;0.63;;;;;;;10.17;59.35;96508.28;5083331;28;20036;-77
2021/05/25 06:59:53;;;;;;;0.50;0.50;;;;;;;10.46;58.78;96503.44;5081094;28;20039;-77
2021/05/25 07:02:23;;;;;;;1.40;1.10;;;;;;;10.81;58.52;96506.31;5084825;28;20044;-77
2021/05/25 07:04:54;;;;;;;1.65;0.40;;;;;;;11.38;56.32;96477.19;5084279;28;20044;-76
2021/05/25 07:07:20;;;;;;;1.67;0.57;;;;;;;11.90;57.33;96493.28;5090863;28;20063;-75
2021/05/25 07:09:46;;;;;;;0.57;0.50;;;;;;;12.23;55.82;96470.16;5084135;28;20048;-76
2021/05/25 07:12:13;;;;;;;0.80;0.55;;;;;;;12.37;55.21;96480.22;5079913;28;20052;-76
2021/05/25 07:14:40;;;;;;;0.63;0.43;;;;;;;12.33;54.39;96467.75;5083668;28;20073;-75
2021/05/25 07:17:07;;;;;;;3.20;0.68;;;;;;;12.41;54.34;96462.16;5087936;28;20408;-76
2021/05/25 07:19:33;;;;;;;0.80;0.50;;;;;;;12.53;54.00;96475.28;5081554;28;20032;-76
2021/05/25 07:22:00;;;;;;;0.60;0.60;;;;;;;12.70;53.30;96476.19;5082951;28;20047;-76
2021/05/25 07:24:27;;;;;;;0.30;0.30;;;;;;;12.51;52.36;96464.19;5082910;28;20484;-76
2021/05/25 07:26:53;;;;;;;1.05;0.70;;;;;;;12.39;52.27;96482.63;5081322;28;20036;-76
2021/05/25 07:29:19;;;;;;;1.95;0.50;;;;;;;12.21;52.37;96474.84;5085996;28;20044;-76
2021/05/25 07:31:46;;;;;;;0.70;0.68;;;;;;;12.40;52.45;96468.44;5083185;28;20028;-76
2021/05/25 07:34:12;;;;;;;1.00;0.60;;;;;;;12.49;52.00;96459.16;5082453;28;20040;-75
2021/05/25 07:36:39;;;;;;;1.95;0.52;;;;;;;12.34;51.27;96470.16;5082356;28;20067;-76
2021/05/25 07:39:06;;;;;;;1.25;0.63;;;;;;;12.15;50.98;96476.53;5089959;28;20059;-76
2021/05/25 07:41:34;;;;;;;1.85;0.50;;;;;;;11.88;51.07;96478.75;5093067;28;20039;-76
2021/05/25 07:44:00;;;;;;;0.73;0.50;;;;;;;11.79;51.60;96465.91;5079542;28;20045;-76
2021/05/25 07:46:27;;;;;;;0.77;0.50;;;;;;;11.94;51.29;96473.41;5088984;28;20107;-75
2021/05/25 07:48:54;;;;;;;0.60;0.52;;;;;;;12.29;51.12;96464.00;5085514;28;20032;-76
2021/05/25 07:51:20;;;;;;;0.50;0.50;;;;;;;12.43;50.51;96446.97;5082892;28;20040;-76
2021/05/25 07:53:47;;;;;;;1.63;0.47;;;;;;;12.49;49.83;96472.31;5080461;28;20028;-75
2021/05/25 07:56:14;;;;;;;1.08;0.73;;;;;;;12.29;49.29;96456.91;5084581;28;20040;-75
2021/05/25 07:58:40;;;;;;;0.70;0.55;;;;;;;12.08;49.51;96462.72;5081394;28;20033;-76
2021/05/25 08:01:06;;;;;;;0.95;0.60;;;;;;;12.19;49.58;96465.34;5084251;28;20048;-76
2021/05/25 08:03:33;;;;;;;0.70;0.47;;;;;;;12.25;49.27;96468.09;5081309;28;20400;-76
2021/05/25 08:05:59;;;;;;;0.63;0.60;;;;;;;12.27;49.20;96479.97;5082919;28;20042;-75
2021/05/25 08:08:27;;;;;;;1.98;0.57;;;;;;;12.39;49.11;96483.44;5082433;28;20427;-76
2021/05/25 08:10:54;;;;;;;2.05;0.38;;;;;;;12.69;48.71;96505.38;5083771;28;20043;-76
2021/05/25 08:13:20;;;;;;;0.68;0.68;;;;;;;12.95;47.86;96507.53;5081920;28;20036;-75
2021/05/25 08:15:47;;;;;;;1.75;0.50;;;;;;;13.17;47.28;96520.09;5084484;28;20047;-75
2021/05/25 08:20:39;;;;;;;0.30;0.30;;;;;;;12.70;46.48;96535.91;5086125;28;20037;-76
2021/05/25 08:23:09;;;;;;;1.10;0.50;;;;;;;12.47;46.61;96539.34;5086469;28;20044;-75
2021/05/25 08:25:37;;;;;;;1.40;0.50;;;;;;;12.37;47.43;96545.97;5080818;28;20480;-74
2021/05/25 08:28:06;;;;;;;0.57;0.30;;;;;;;12.48;47.45;96541.75;5083624;28;20032;-75
2021/05/25 08:30:35;;;;;;;0.40;0.40;;;;;;;12.57;47.25;96552.72;5083705;28;20049;-75
2021/05/25 08:33:02;;;;;;;0.95;0.75;;;;;;;12.61;47.21;96556.50;5079678;28;20041;-75
2021/05/25 08:35:32;;;;;;;0.40;0.30;;;;;;;12.58;46.95;96542.00;5082662;28;20500;-75
2021/05/25 08:37:59;;;;;;;0.60;0.47;;;;;;;12.41;46.70;96563.91;5085113;28;20066;-75
2021/05/25 08:40:31;;;;;;;3.60;0.70;;;;;;;12.40;46.74;96563.13;5080908;28;20055;-75
2021/05/25 08:42:58;;;;;;;0.50;0.40;;;;;;;12.65;47.01;96570.81;5079085;28;20040;-75
2021/05/25 08:45:25;;;;;;;0.50;0.50;;;;;;;13.04;46.47;96586.97;5083937;28;20385;-75
2021/05/25 08:47:53;;;;;;;2.45;0.43;;;;;;;13.35;46.01;96571.84;5081771;28;20041;-76
2021/05/25 08:50:25;;;;;;;0.77;0.43;;;;;;;13.28;45.30;96557.97;5090245;28;20043;-75
2021/05/25 08:52:52;;;;;;;1.77;0.40;;;;;;;13.02;45.33;96582.94;5088670;28;20037;-75
2021/05/25 08:55:20;;;;;;;0.43;0.43;;;;;;;12.70;45.48;96578.81;5089575;28;20043;-75
2021/05/25 08:57:47;;;;;;;1.15;0.50;;;;;;;12.73;46.10;96586.28;5079208;28;20045;-75
2021/05/25 09:00:15;;;;;;;1.02;0.75;;;;;;;13.18;46.02;96587.50;5087035;28;20056;-75
2021/05/25 09:02:41;;;;;;;4.53;0.60;;;;;;;13.87;46.11;96584.97;5093322;28;20036;-75
2021/05/25 09:05:19;;;;;;;0.47;0.47;;;;;;;14.58;43.88;96569.63;5084600;28;20055;-75
2021/05/25 09:07:51;;;;;;;1.65;0.63;;;;;;;14.80;42.82;96579.44;5085365;28;20404;-75
2021/05/25 09:10:36;;;;;;;0.88;0.60;;;;;;;14.66;42.31;96591.38;5090461;28;20032;-75
2021/05/25 09:13:04;;;;;;;0.55;0.43;;;;;;;14.37;43.29;96594.06;5089435;28;20043;-75
2021/05/25 09:15:35;;;;;;;1.10;0.57;;;;;;;14.19;42.79;96598.50;5086430;28;20035;-75
2021/05/25 09:18:05;;;;;;;0.93;0.40;;;;;;;14.02;42.83;96602.91;5084756;28;20039;-75
2021/05/25 09:20:39;;;;;;;1.90;0.40;;;;;;;13.68;43.22;96612.56;5081477;28;20024;-75
2021/05/25 09:23:06;;;;;;;0.57;0.30;;;;;;;13.32;43.95;96627.63;5084430;28;20032;-75
2021/05/25 09:25:33;;;;;;;0.57;0.57;;;;;;;12.92;44.65;96644.09;5088249;28;20049;-75
2021/05/25 09:28:09;;;;;;;1.27;0.55;;;;;;;12.81;45.38;96643.03;5086927;28;20574;-75
2021/05/25 09:30:36;;;;;;;0.50;0.50;;;;;;;13.22;45.60;96651.06;5088413;28;20051;-75
2021/05/25 09:33:04;;;;;;;0.65;0.47;;;;;;;13.68;44.94;96639.72;5083505;28;21157;-75
2021/05/25 09:35:40;;;;;;;0.30;0.30;;;;;;;14.06;44.45;96614.59;5083347;28;20052;-75
2021/05/25 09:38:13;;;;;;;1.35;0.63;;;;;;;14.14;44.17;96614.22;5082714;28;20052;-75
2021/05/25 09:40:46;;;;;;;0.70;0.50;;;;;;;14.26;43.73;96619.47;5086449;28;20036;-75
2021/05/25 09:43:16;;;;;;;1.25;0.80;;;;;;;14.30;43.63;96631.13;5090224;28;20047;-75
2021/05/25 09:46:05;;;;;;;0.85;0.40;;;;;;;14.15;43.16;96615.03;5090299;28;20466;-75
2021/05/25 09:48:33;;;;;;;0.82;0.70;;;;;;;13.87;43.56;96623.72;5075779;28;20036;-75
2021/05/25 09:51:00;;;;;;;0.90;0.47;;;;;;;13.67;43.93;96634.66;5087977;28;20040;-75
2021/05/25 09:53:31;;;;;;;1.30;0.40;;;;;;;13.57;44.01;96645.81;5084137;28;20040;-75
2021/05/25 09:56:00;;;;;;;0.82;0.47;;;;;;;13.45;43.73;96648.44;5080275;28;20039;-75
2021/05/25 09:58:32;;;;;;;0.65;0.45;;;;;;;13.21;43.06;96650.28;5086132;28;20028;-75
2021/05/25 10:01:07;;;;;;;0.43;0.35;;;;;;;13.16;43.46;96650.94;5078979;28;20377;-75
2021/05/25 10:03:42;;;;;;;0.47;0.40;;;;;;;13.39;43.37;96652.78;5076445;28;20028;-75
2021/05/25 10:06:09;;;;;;;0.40;0.40;;;;;;;13.73;43.77;96647.72;5092174;28;20200;-75
2021/05/25 10:08:36;;;;;;;0.98;0.70;;;;;;;13.95;43.28;96653.16;5081200;28;20039;-75
2021/05/25 10:11:03;;;;;;;0.95;0.55;;;;;;;14.26;43.34;96668.75;5082521;28;20485;-75
2021/05/25 10:13:31;;;;;;;0.77;0.52;;;;;;;14.40;42.85;96662.97;5089993;28;20036;-75
2021/05/25 10:15:57;;;;;;;0.98;0.57;;;;;;;14.39;42.67;96682.47;5085837;28;20044;-75
2021/05/25 10:20:55;;;;;;;0.70;0.55;;;;;;;14.52;42.43;96680.59;5091941;28;20048;-75
2021/05/25 10:23:22;;;;;;;0.50;0.50;;;;;;;14.47;42.44;96680.47;5088291;28;20051;-75
2021/05/25 10:25:52;;;;;;;0.65;0.47;;;;;;;14.50;42.49;96680.81;5080602;28;20047;-75
2021/05/25 10:28:20;;;;;;;0.47;0.40;;;;;;;14.23;42.56;96677.16;5066132;28;20044;-75
2021/05/25 10:30:51;;;;;;;1.38;0.75;;;;;;;14.17;42.69;96682.34;5088657;28;20040;-75
2021/05/25 10:33:17;;;;;;;2.55;0.70;;;;;;;14.48;43.02;96690.00;5081580;28;20036;-75
2021/05/25 10:35:50;;;;;;;1.40;0.77;;;;;;;14.48;41.96;96682.09;5082863;28;20424;-75
2021/05/25 10:38:21;;;;;;;0.80;0.73;;;;;;;14.28;42.49;96682.50;5085458;28;20424;-75
2021/05/25 10:40:50;;;;;;;1.13;0.60;;;;;;;14.56;43.15;96697.59;5084016;28;20380;-75
2021/05/25 10:43:32;;;;;;;1.17;0.60;;;;;;;14.81;41.37;96691.94;5085325;28;20055;-75
2021/05/25 10:46:14;;;;;;;1.70;0.73;;;;;;;14.63;41.35;96700.06;5079972;28;20044;-75
2021/05/25 10:49:06;;;;;;;1.30;0.77;;;;;;;14.38;42.27;96706.44;5084684;28;20036;-75
2021/05/25 10:51:45;;;;;;;1.00;0.43;;;;;;;14.74;40.68;96709.75;5078715;28;20047;-75
2021/05/25 10:54:35;;;;;;;1.52;0.57;;;;;;;14.90;40.96;96703.72;5074463;28;20028;-75
2021/05/25 10:57:46;;;;;;;0.55;0.47;;;;;;;14.98;39.52;96705.16;5087428;28;20036;-75
2021/05/25 11:00:15;;;;;;;1.27;0.63;;;;;;;15.04;40.66;96719.25;5087629;28;20416;-74
2021/05/25 11:02:55;;;;;;;1.55;0.57;;;;;;;14.82;40.17;96720.75;5077215;28;20036;-75
2021/05/25 11:05:31;;;;;;;2.63;0.57;;;;;;;14.55;40.62;96712.63;5084380;28;20044;-75
2021/05/25 11:08:12;;;;;;;0.65;0.50;;;;;;;14.41;41.35;96732.38;5086761;28;20024;-75
2021/05/25 11:10:44;;;;;;;0.40;0.40;;;;;;;14.32;41.55;96725.84;5085761;28;20032;-75
2021/05/25 11:13:22;;;;;;;1.15;0.50;;;;;;;14.26;41.91;96738.16;5090383;28;20036;-75
2021/05/25 11:16:12;;;;;;;0.45;0.45;;;;;;;14.25;41.44;96726.00;5083203;28;20051;-75
2021/05/25 11:19:04;;;;;;;0.50;0.40;;;;;;;14.11;40.88;96725.47;5074394;28;20036;-75
2021/05/25 11:24:33;;;;;;;1.40;0.50;;;;;;;13.78;41.23;96731.38;5083246;28;20032;-75
2021/05/25 11:27:10;;;;;;;0.47;0.45;;;;;;;13.70;41.72;96739.63;5084895;28;20040;-75
2021/05/25 11:29:40;;;;;;;1.65;0.50;;;;;;;13.56;42.20;96754.84;5088064;28;20110;-75
2021/05/25 11:32:17;;;;;;;0.80;0.47;;;;;;;13.40;42.53;96743.19;5078819;28;20052;-75
2021/05/25 11:34:44;;;;;;;0.93;0.60;;;;;;;13.19;42.83;96740.03;5082622;28;20135;-75
2021/05/25 11:37:14;;;;;;;0.50;0.35;;;;;;;13.08;43.23;96748.72;5086132;28;20052;-75
2021/05/25 11:39:41;;;;;;;1.10;0.57;;;;;;;12.96;43.54;96755.78;5088087;28;20043;-76
2021/05/25 11:42:08;;;;;;;1.42;0.45;;;;;;;12.84;43.87;96757.59;5077053;28;20052;-75
2021/05/25 11:44:37;;;;;;;0.90;0.63;;;;;;;12.76;44.41;96783.16;5084568;28;20052;-75
2021/05/25 11:47:06;;;;;;;1.15;0.68;;;;;;;12.55;46.06;96763.41;5086865;28;20473;-74
2021/05/25 11:49:34;;;;;;;1.08;0.70;;;;;;;12.68;47.14;96754.56;5085388;28;20036;-74
2021/05/25 11:52:21;;;;;;;0.65;0.65;;;;;;;13.18;51.21;96774.50;5080931;28;20042;-74
2021/05/25 11:54:48;;;;;;;1.30;0.70;;;;;;;13.66;47.11;96728.75;5079369;28;20393;-75
2021/05/25 11:57:25;;;;;;;0.57;0.45;;;;;;;14.15;49.19;96747.72;5084026;28;20044;-74